sensor_id;sensor_type;location;lat;lon;timestamp;temperature;humidity
23207;DHT22;11773;52.570;13.052;2023-07-24T00:02:04;21.00;99.90
23207;DHT22;11773;52.570;13.052;2023-07-24T00:04:33;21.00;99.90
23207;DHT22;11773;52.570;13.052;2023-07-24T00:07:03;21.00;99.90
23207;DHT22;11773;52.570;13.052;2023-07-24T00:09:33;21.00;99.90
23207;DHT22;11773;52.570;13.052;2023-07-24T00:12:02;21.00;99.90
23207;DHT22;11773;52.570;13.052;2023-07-24T00:14:32;20.90;99.90
23207;DHT22;11773;52.570;13.052;2023-07-24T00:17:02;21.00;99.90
23207;DHT22;11773;52.570;13.052;2023-07-24T00:19:31;20.90;99.90
23207;DHT22;11773;52.570;13.052;2023-07-24T00:22:01;20.90;99.90
23207;DHT22;11773;52.570;13.052;2023-07-24T00:24:31;20.70;99.90
23207;DHT22;11773;52.570;13.052;2023-07-24T00:27:01;20.40;99.90
23207;DHT22;11773;52.570;13.052;2023-07-24T00:29:31;20.50;99.90
23207;DHT22;11773;52.570;13.052;2023-07-24T00:32:00;20.60;99.90
23207;DHT22;11773;52.570;13.052;2023-07-24T00:34:30;20.70;99.90
23207;DHT22;11773;52.570;13.052;2023-07-24T00:36:59;20.70;99.90
23207;DHT22;11773;52.570;13.052;2023-07-24T00:39:29;20.80;99.90
23207;DHT22;11773;52.570;13.052;2023-07-24T00:41:59;20.70;99.90
23207;DHT22;11773;52.570;13.052;2023-07-24T00:44:28;20.80;99.90
23207;DHT22;11773;52.570;13.052;2023-07-24T00:46:58;20.90;99.90
23207;DHT22;11773;52.570;13.052;2023-07-24T00:49:27;20.90;99.90
23207;DHT22;11773;52.570;13.052;2023-07-24T00:51:57;20.90;99.90
23207;DHT22;11773;52.570;13.052;2023-07-24T00:54:28;20.80;99.90
23207;DHT22;11773;52.570;13.052;2023-07-24T00:57:02;20.70;99.90
23207;DHT22;11773;52.570;13.052;2023-07-24T00:59:33;20.70;99.90
23207;DHT22;11773;52.570;13.052;2023-07-24T01:02:03;20.90;99.90
23207;DHT22;11773;52.570;13.052;2023-07-24T01:04:32;21.00;99.90
23207;DHT22;11773;52.570;13.052;2023-07-24T01:07:02;20.90;99.90
23207;DHT22;11773;52.570;13.052;2023-07-24T01:09:32;21.00;99.90
23207;DHT22;11773;52.570;13.052;2023-07-24T01:15:07;21.00;99.90
23207;DHT22;11773;52.570;13.052;2023-07-24T01:17:50;21.00;99.90
23207;DHT22;11773;52.570;13.052;2023-07-24T01:20:21;21.00;99.90
23207;DHT22;11773;52.570;13.052;2023-07-24T01:26:05;21.00;99.90
23207;DHT22;11773;52.570;13.052;2023-07-24T01:28:36;21.00;99.90
23207;DHT22;11773;52.570;13.052;2023-07-24T01:31:07;21.10;99.90
23207;DHT22;11773;52.570;13.052;2023-07-24T01:33:37;21.10;99.90
23207;DHT22;11773;52.570;13.052;2023-07-24T01:36:07;21.10;99.90
23207;DHT22;11773;52.570;13.052;2023-07-24T01:38:38;21.10;99.90
23207;DHT22;11773;52.570;13.052;2023-07-24T01:41:08;21.10;99.90
23207;DHT22;11773;52.570;13.052;2023-07-24T01:43:38;21.10;99.90
23207;DHT22;11773;52.570;13.052;2023-07-24T01:46:08;21.10;99.90
23207;DHT22;11773;52.570;13.052;2023-07-24T01:48:37;21.00;99.90
23207;DHT22;11773;52.570;13.052;2023-07-24T01:51:07;21.00;99.90
23207;DHT22;11773;52.570;13.052;2023-07-24T01:53:36;20.90;99.90
23207;DHT22;11773;52.570;13.052;2023-07-24T01:56:06;20.90;99.90
23207;DHT22;11773;52.570;13.052;2023-07-24T01:58:36;20.90;99.90
23207;DHT22;11773;52.570;13.052;2023-07-24T02:01:05;21.00;99.90
23207;DHT22;11773;52.570;13.052;2023-07-24T02:03:35;20.90;99.90
23207;DHT22;11773;52.570;13.052;2023-07-24T02:06:06;21.00;99.90
23207;DHT22;11773;52.570;13.052;2023-07-24T02:08:36;21.00;99.90
23207;DHT22;11773;52.570;13.052;2023-07-24T02:11:05;21.00;99.90
23207;DHT22;11773;52.570;13.052;2023-07-24T02:13:35;21.00;99.90
23207;DHT22;11773;52.570;13.052;2023-07-24T02:16:05;21.00;99.90
23207;DHT22;11773;52.570;13.052;2023-07-24T02:18:34;20.80;99.90
23207;DHT22;11773;52.570;13.052;2023-07-24T02:21:05;21.00;99.90
23207;DHT22;11773;52.570;13.052;2023-07-24T02:23:36;21.00;99.90
23207;DHT22;11773;52.570;13.052;2023-07-24T02:26:05;21.00;99.90
23207;DHT22;11773;52.570;13.052;2023-07-24T02:28:35;21.10;99.90
23207;DHT22;11773;52.570;13.052;2023-07-24T02:31:05;21.10;99.90
23207;DHT22;11773;52.570;13.052;2023-07-24T02:33:34;21.00;99.90
23207;DHT22;11773;52.570;13.052;2023-07-24T02:36:04;20.70;99.90
23207;DHT22;11773;52.570;13.052;2023-07-24T02:38:34;20.80;99.90
23207;DHT22;11773;52.570;13.052;2023-07-24T02:41:03;21.00;99.90
23207;DHT22;11773;52.570;13.052;2023-07-24T02:43:33;21.00;99.90
23207;DHT22;11773;52.570;13.052;2023-07-24T02:46:03;21.00;99.90
23207;DHT22;11773;52.570;13.052;2023-07-24T02:48:32;21.00;99.90
23207;DHT22;11773;52.570;13.052;2023-07-24T02:51:02;21.00;99.90
23207;DHT22;11773;52.570;13.052;2023-07-24T02:53:31;20.90;99.90
23207;DHT22;11773;52.570;13.052;2023-07-24T02:56:02;21.00;99.90
23207;DHT22;11773;52.570;13.052;2023-07-24T02:58:31;21.00;99.90
23207;DHT22;11773;52.570;13.052;2023-07-24T03:01:05;21.00;99.90
23207;DHT22;11773;52.570;13.052;2023-07-24T03:03:36;21.00;99.90
23207;DHT22;11773;52.570;13.052;2023-07-24T03:06:06;21.10;99.90
23207;DHT22;11773;52.570;13.052;2023-07-24T03:08:35;21.00;99.90
23207;DHT22;11773;52.570;13.052;2023-07-24T03:11:05;20.90;99.90
23207;DHT22;11773;52.570;13.052;2023-07-24T03:13:36;21.00;99.90
23207;DHT22;11773;52.570;13.052;2023-07-24T03:16:07;20.90;99.90
23207;DHT22;11773;52.570;13.052;2023-07-24T03:18:36;21.00;99.90
23207;DHT22;11773;52.570;13.052;2023-07-24T03:21:06;21.10;99.90
23207;DHT22;11773;52.570;13.052;2023-07-24T03:23:35;21.00;99.90
23207;DHT22;11773;52.570;13.052;2023-07-24T03:26:05;20.90;99.90
23207;DHT22;11773;52.570;13.052;2023-07-24T03:28:34;20.80;99.90
23207;DHT22;11773;52.570;13.052;2023-07-24T03:31:04;20.80;99.90
23207;DHT22;11773;52.570;13.052;2023-07-24T03:33:34;20.90;99.90
23207;DHT22;11773;52.570;13.052;2023-07-24T03:36:03;20.80;99.90
23207;DHT22;11773;52.570;13.052;2023-07-24T03:38:33;21.10;99.90
23207;DHT22;11773;52.570;13.052;2023-07-24T03:41:03;21.10;99.90
23207;DHT22;11773;52.570;13.052;2023-07-24T03:43:32;21.00;99.90
23207;DHT22;11773;52.570;13.052;2023-07-24T03:46:02;21.10;99.90
23207;DHT22;11773;52.570;13.052;2023-07-24T03:48:32;21.10;99.90
23207;DHT22;11773;52.570;13.052;2023-07-24T03:51:02;20.90;99.90
23207;DHT22;11773;52.570;13.052;2023-07-24T03:53:32;21.00;99.90
23207;DHT22;11773;52.570;13.052;2023-07-24T03:56:02;21.00;99.90
23207;DHT22;11773;52.570;13.052;2023-07-24T03:58:31;21.10;99.90
23207;DHT22;11773;52.570;13.052;2023-07-24T04:01:01;21.00;99.90
23207;DHT22;11773;52.570;13.052;2023-07-24T04:03:31;21.10;99.90
23207;DHT22;11773;52.570;13.052;2023-07-24T04:06:01;21.00;99.90
23207;DHT22;11773;52.570;13.052;2023-07-24T04:08:30;21.10;99.90
23207;DHT22;11773;52.570;13.052;2023-07-24T04:11:00;21.10;99.90
23207;DHT22;11773;52.570;13.052;2023-07-24T04:13:31;21.20;99.90
23207;DHT22;11773;52.570;13.052;2023-07-24T04:16:01;21.20;99.90
23207;DHT22;11773;52.570;13.052;2023-07-24T04:18:30;21.30;99.90
23207;DHT22;11773;52.570;13.052;2023-07-24T04:21:00;21.10;99.90
23207;DHT22;11773;52.570;13.052;2023-07-24T04:23:29;21.20;99.90
23207;DHT22;11773;52.570;13.052;2023-07-24T04:25:59;21.20;99.90
23207;DHT22;11773;52.570;13.052;2023-07-24T04:28:29;21.30;99.90
23207;DHT22;11773;52.570;13.052;2023-07-24T04:31:01;21.40;99.90
23207;DHT22;11773;52.570;13.052;2023-07-24T04:33:30;21.40;99.90
23207;DHT22;11773;52.570;13.052;2023-07-24T04:36:00;21.30;99.90
23207;DHT22;11773;52.570;13.052;2023-07-24T04:38:30;21.50;99.90
23207;DHT22;11773;52.570;13.052;2023-07-24T04:41:02;21.50;99.90
23207;DHT22;11773;52.570;13.052;2023-07-24T04:43:32;21.70;99.90
23207;DHT22;11773;52.570;13.052;2023-07-24T04:46:02;21.70;99.90
23207;DHT22;11773;52.570;13.052;2023-07-24T04:48:31;21.90;99.90
23207;DHT22;11773;52.570;13.052;2023-07-24T04:51:01;21.90;99.90
23207;DHT22;11773;52.570;13.052;2023-07-24T04:53:30;21.80;99.90
23207;DHT22;11773;52.570;13.052;2023-07-24T04:56:00;21.90;99.90
23207;DHT22;11773;52.570;13.052;2023-07-24T04:58:29;21.90;99.90
23207;DHT22;11773;52.570;13.052;2023-07-24T05:01:03;21.70;99.90
23207;DHT22;11773;52.570;13.052;2023-07-24T05:03:33;21.80;99.90
23207;DHT22;11773;52.570;13.052;2023-07-24T05:06:03;21.90;99.90
23207;DHT22;11773;52.570;13.052;2023-07-24T05:08:32;22.10;99.90
23207;DHT22;11773;52.570;13.052;2023-07-24T05:11:02;22.10;99.90
23207;DHT22;11773;52.570;13.052;2023-07-24T05:13:31;22.20;99.90
23207;DHT22;11773;52.570;13.052;2023-07-24T05:16:01;22.30;99.90
23207;DHT22;11773;52.570;13.052;2023-07-24T05:18:30;22.50;99.90
23207;DHT22;11773;52.570;13.052;2023-07-24T05:21:00;22.40;99.90
23207;DHT22;11773;52.570;13.052;2023-07-24T05:23:30;22.40;99.90
23207;DHT22;11773;52.570;13.052;2023-07-24T05:28:52;22.40;99.90
23207;DHT22;11773;52.570;13.052;2023-07-24T05:31:22;22.40;99.90
23207;DHT22;11773;52.570;13.052;2023-07-24T05:33:52;22.40;99.90
23207;DHT22;11773;52.570;13.052;2023-07-24T05:36:21;22.50;99.90
23207;DHT22;11773;52.570;13.052;2023-07-24T05:38:52;23.10;99.90
23207;DHT22;11773;52.570;13.052;2023-07-24T05:41:21;23.90;99.90
23207;DHT22;11773;52.570;13.052;2023-07-24T05:43:51;24.40;99.90
23207;DHT22;11773;52.570;13.052;2023-07-24T05:46:20;24.40;99.90
23207;DHT22;11773;52.570;13.052;2023-07-24T05:48:50;24.30;99.90
23207;DHT22;11773;52.570;13.052;2023-07-24T05:51:20;24.20;99.90
23207;DHT22;11773;52.570;13.052;2023-07-24T05:53:49;24.10;99.90
23207;DHT22;11773;52.570;13.052;2023-07-24T05:56:19;23.70;99.90
23207;DHT22;11773;52.570;13.052;2023-07-24T05:58:50;23.60;99.90
23207;DHT22;11773;52.570;13.052;2023-07-24T06:01:19;23.50;99.90
23207;DHT22;11773;52.570;13.052;2023-07-24T06:03:49;24.00;99.90
23207;DHT22;11773;52.570;13.052;2023-07-24T06:06:18;24.70;99.90
23207;DHT22;11773;52.570;13.052;2023-07-24T06:08:48;25.30;99.90
23207;DHT22;11773;52.570;13.052;2023-07-24T06:11:18;25.70;99.90
23207;DHT22;11773;52.570;13.052;2023-07-24T06:13:48;26.10;99.90
23207;DHT22;11773;52.570;13.052;2023-07-24T06:16:17;26.10;99.90
23207;DHT22;11773;52.570;13.052;2023-07-24T06:18:47;26.30;99.90
23207;DHT22;11773;52.570;13.052;2023-07-24T06:21:16;26.20;99.90
23207;DHT22;11773;52.570;13.052;2023-07-24T06:23:46;26.90;99.90
23207;DHT22;11773;52.570;13.052;2023-07-24T06:26:16;27.30;99.90
23207;DHT22;11773;52.570;13.052;2023-07-24T06:28:45;27.10;99.90
23207;DHT22;11773;52.570;13.052;2023-07-24T06:31:15;27.50;99.90
23207;DHT22;11773;52.570;13.052;2023-07-24T06:33:45;27.80;99.90
23207;DHT22;11773;52.570;13.052;2023-07-24T06:36:14;27.90;99.90
23207;DHT22;11773;52.570;13.052;2023-07-24T06:38:44;27.70;99.90
23207;DHT22;11773;52.570;13.052;2023-07-24T06:41:15;27.50;99.90
23207;DHT22;11773;52.570;13.052;2023-07-24T06:43:45;27.80;99.90
23207;DHT22;11773;52.570;13.052;2023-07-24T06:46:15;28.00;99.90
23207;DHT22;11773;52.570;13.052;2023-07-24T06:48:44;28.10;99.90
23207;DHT22;11773;52.570;13.052;2023-07-24T06:51:14;28.50;99.90
23207;DHT22;11773;52.570;13.052;2023-07-24T06:53:43;28.60;99.90
23207;DHT22;11773;52.570;13.052;2023-07-24T06:56:13;28.50;99.90
23207;DHT22;11773;52.570;13.052;2023-07-24T06:58:43;28.70;99.90
23207;DHT22;11773;52.570;13.052;2023-07-24T07:01:12;28.70;99.90
23207;DHT22;11773;52.570;13.052;2023-07-24T07:03:42;28.80;99.90
23207;DHT22;11773;52.570;13.052;2023-07-24T07:06:11;29.10;99.90
23207;DHT22;11773;52.570;13.052;2023-07-24T07:08:43;29.20;99.90
23207;DHT22;11773;52.570;13.052;2023-07-24T07:11:12;29.00;99.90
23207;DHT22;11773;52.570;13.052;2023-07-24T07:13:42;29.00;99.90
23207;DHT22;11773;52.570;13.052;2023-07-24T07:16:11;28.60;99.90
23207;DHT22;11773;52.570;13.052;2023-07-24T07:18:41;28.80;99.90
23207;DHT22;11773;52.570;13.052;2023-07-24T07:21:11;28.50;99.90
23207;DHT22;11773;52.570;13.052;2023-07-24T07:23:40;28.80;99.90
23207;DHT22;11773;52.570;13.052;2023-07-24T07:26:11;28.60;99.90
23207;DHT22;11773;52.570;13.052;2023-07-24T07:28:41;29.00;99.90
23207;DHT22;11773;52.570;13.052;2023-07-24T07:31:12;29.10;99.90
23207;DHT22;11773;52.570;13.052;2023-07-24T07:33:42;29.20;99.90
23207;DHT22;11773;52.570;13.052;2023-07-24T07:36:11;28.70;99.90
23207;DHT22;11773;52.570;13.052;2023-07-24T07:38:41;29.10;99.90
23207;DHT22;11773;52.570;13.052;2023-07-24T07:41:10;29.40;99.90
23207;DHT22;11773;52.570;13.052;2023-07-24T07:43:40;29.30;99.90
23207;DHT22;11773;52.570;13.052;2023-07-24T07:46:09;29.20;99.90
23207;DHT22;11773;52.570;13.052;2023-07-24T07:48:39;29.20;99.90
23207;DHT22;11773;52.570;13.052;2023-07-24T07:51:09;29.50;99.90
23207;DHT22;11773;52.570;13.052;2023-07-24T07:53:39;29.80;99.90
23207;DHT22;11773;52.570;13.052;2023-07-24T07:56:08;29.30;99.90
23207;DHT22;11773;52.570;13.052;2023-07-24T07:58:38;29.50;99.90
23207;DHT22;11773;52.570;13.052;2023-07-24T08:01:07;29.10;99.90
23207;DHT22;11773;52.570;13.052;2023-07-24T08:03:37;28.70;99.90
23207;DHT22;11773;52.570;13.052;2023-07-24T08:06:07;28.30;99.90
23207;DHT22;11773;52.570;13.052;2023-07-24T08:08:36;27.90;99.90
23207;DHT22;11773;52.570;13.052;2023-07-24T08:11:06;28.20;99.90
23207;DHT22;11773;52.570;13.052;2023-07-24T08:13:36;28.20;99.90
23207;DHT22;11773;52.570;13.052;2023-07-24T08:16:16;28.30;99.90
23207;DHT22;11773;52.570;13.052;2023-07-24T08:18:48;28.60;99.90
23207;DHT22;11773;52.570;13.052;2023-07-24T08:21:19;29.00;99.90
23207;DHT22;11773;52.570;13.052;2023-07-24T08:23:48;28.70;99.90
23207;DHT22;11773;52.570;13.052;2023-07-24T08:26:18;28.00;99.90
23207;DHT22;11773;52.570;13.052;2023-07-24T08:28:48;28.00;99.90
23207;DHT22;11773;52.570;13.052;2023-07-24T08:31:17;28.00;99.90
23207;DHT22;11773;52.570;13.052;2023-07-24T08:33:47;28.10;99.90
23207;DHT22;11773;52.570;13.052;2023-07-24T08:36:16;27.90;99.90
23207;DHT22;11773;52.570;13.052;2023-07-24T08:38:46;27.90;99.90
23207;DHT22;11773;52.570;13.052;2023-07-24T08:41:15;27.90;99.90
23207;DHT22;11773;52.570;13.052;2023-07-24T08:43:45;27.20;99.90
23207;DHT22;11773;52.570;13.052;2023-07-24T08:46:15;27.30;99.90
23207;DHT22;11773;52.570;13.052;2023-07-24T08:48:46;27.70;99.90
23207;DHT22;11773;52.570;13.052;2023-07-24T08:51:16;27.80;99.90
23207;DHT22;11773;52.570;13.052;2023-07-24T08:53:53;27.60;99.90
23207;DHT22;11773;52.570;13.052;2023-07-24T08:56:23;27.80;99.90
23207;DHT22;11773;52.570;13.052;2023-07-24T08:58:52;27.50;99.90
23207;DHT22;11773;52.570;13.052;2023-07-24T09:01:22;27.90;99.90
23207;DHT22;11773;52.570;13.052;2023-07-24T09:03:51;27.20;99.90
23207;DHT22;11773;52.570;13.052;2023-07-24T09:06:21;27.70;99.90
23207;DHT22;11773;52.570;13.052;2023-07-24T09:08:53;27.90;99.90
23207;DHT22;11773;52.570;13.052;2023-07-24T09:11:23;28.10;99.90
23207;DHT22;11773;52.570;13.052;2023-07-24T09:13:52;28.00;99.90
23207;DHT22;11773;52.570;13.052;2023-07-24T09:16:24;28.30;99.90
23207;DHT22;11773;52.570;13.052;2023-07-24T09:18:55;28.60;99.90
23207;DHT22;11773;52.570;13.052;2023-07-24T09:21:31;28.80;99.90
23207;DHT22;11773;52.570;13.052;2023-07-24T09:24:11;28.40;99.90
23207;DHT22;11773;52.570;13.052;2023-07-24T09:26:52;28.20;99.90
23207;DHT22;11773;52.570;13.052;2023-07-24T09:29:31;28.40;99.90
23207;DHT22;11773;52.570;13.052;2023-07-24T09:32:02;28.20;99.90
23207;DHT22;11773;52.570;13.052;2023-07-24T09:34:32;28.70;99.90
23207;DHT22;11773;52.570;13.052;2023-07-24T09:37:02;29.10;99.90
23207;DHT22;11773;52.570;13.052;2023-07-24T09:39:32;28.60;99.90
23207;DHT22;11773;52.570;13.052;2023-07-24T09:42:05;28.80;99.90
23207;DHT22;11773;52.570;13.052;2023-07-24T09:44:35;28.60;99.90
23207;DHT22;11773;52.570;13.052;2023-07-24T09:47:05;28.60;99.90
23207;DHT22;11773;52.570;13.052;2023-07-24T09:49:37;28.90;99.90
23207;DHT22;11773;52.570;13.052;2023-07-24T09:52:09;29.10;99.90
23207;DHT22;11773;52.570;13.052;2023-07-24T09:54:47;29.00;99.90
23207;DHT22;11773;52.570;13.052;2023-07-24T09:57:16;29.10;99.90
23207;DHT22;11773;52.570;13.052;2023-07-24T09:59:49;28.80;99.90
23207;DHT22;11773;52.570;13.052;2023-07-24T10:02:21;28.50;99.90
23207;DHT22;11773;52.570;13.052;2023-07-24T10:04:54;28.40;99.90
23207;DHT22;11773;52.570;13.052;2023-07-24T10:07:25;28.30;99.90
23207;DHT22;11773;52.570;13.052;2023-07-24T10:09:55;28.90;99.90
23207;DHT22;11773;52.570;13.052;2023-07-24T10:12:25;29.10;99.90
23207;DHT22;11773;52.570;13.052;2023-07-24T10:14:56;29.00;99.90
23207;DHT22;11773;52.570;13.052;2023-07-24T10:17:34;29.10;99.90
23207;DHT22;11773;52.570;13.052;2023-07-24T10:20:09;29.30;99.90
23207;DHT22;11773;52.570;13.052;2023-07-24T10:22:43;29.40;99.90
23207;DHT22;11773;52.570;13.052;2023-07-24T10:25:12;29.20;99.90
23207;DHT22;11773;52.570;13.052;2023-07-24T10:27:45;29.30;99.90
23207;DHT22;11773;52.570;13.052;2023-07-24T10:30:17;29.20;99.90
23207;DHT22;11773;52.570;13.052;2023-07-24T10:32:51;28.80;99.90
23207;DHT22;11773;52.570;13.052;2023-07-24T10:35:23;28.90;99.90
23207;DHT22;11773;52.570;13.052;2023-07-24T10:38:02;28.80;99.90
23207;DHT22;11773;52.570;13.052;2023-07-24T10:40:33;28.80;99.90
23207;DHT22;11773;52.570;13.052;2023-07-24T10:43:13;29.10;99.90
23207;DHT22;11773;52.570;13.052;2023-07-24T10:45:52;29.30;99.90
23207;DHT22;11773;52.570;13.052;2023-07-24T10:48:25;29.30;99.90
23207;DHT22;11773;52.570;13.052;2023-07-24T10:50:55;29.50;99.90
23207;DHT22;11773;52.570;13.052;2023-07-24T10:53:24;29.30;99.90
23207;DHT22;11773;52.570;13.052;2023-07-24T10:55:54;29.10;99.90
23207;DHT22;11773;52.570;13.052;2023-07-24T10:58:25;29.10;99.90
23207;DHT22;11773;52.570;13.052;2023-07-24T11:00:56;28.90;99.90
23207;DHT22;11773;52.570;13.052;2023-07-24T11:03:27;29.20;99.90
23207;DHT22;11773;52.570;13.052;2023-07-24T11:05:58;29.10;99.90
23207;DHT22;11773;52.570;13.052;2023-07-24T11:08:28;29.20;99.90
23207;DHT22;11773;52.570;13.052;2023-07-24T11:10:58;29.10;99.90
23207;DHT22;11773;52.570;13.052;2023-07-24T11:13:30;29.30;99.90
23207;DHT22;11773;52.570;13.052;2023-07-24T11:16:04;29.60;99.90
23207;DHT22;11773;52.570;13.052;2023-07-24T11:18:46;29.40;99.90
23207;DHT22;11773;52.570;13.052;2023-07-24T11:21:22;28.90;99.90
23207;DHT22;11773;52.570;13.052;2023-07-24T11:23:53;28.80;99.90
23207;DHT22;11773;52.570;13.052;2023-07-24T11:26:25;28.90;99.90
23207;DHT22;11773;52.570;13.052;2023-07-24T11:28:55;28.60;99.90
23207;DHT22;11773;52.570;13.052;2023-07-24T11:31:25;28.70;99.90
23207;DHT22;11773;52.570;13.052;2023-07-24T11:33:56;28.60;99.90
23207;DHT22;11773;52.570;13.052;2023-07-24T11:36:26;28.70;99.90
23207;DHT22;11773;52.570;13.052;2023-07-24T11:38:56;28.20;99.90
23207;DHT22;11773;52.570;13.052;2023-07-24T11:41:26;28.10;99.90
23207;DHT22;11773;52.570;13.052;2023-07-24T11:43:56;28.10;99.90
23207;DHT22;11773;52.570;13.052;2023-07-24T11:46:27;28.10;99.90
23207;DHT22;11773;52.570;13.052;2023-07-24T11:48:59;28.00;99.90
23207;DHT22;11773;52.570;13.052;2023-07-24T11:51:29;27.50;99.90
23207;DHT22;11773;52.570;13.052;2023-07-24T11:54:09;26.70;99.90
23207;DHT22;11773;52.570;13.052;2023-07-24T11:56:41;26.50;99.90
23207;DHT22;11773;52.570;13.052;2023-07-24T11:59:14;26.70;99.90
23207;DHT22;11773;52.570;13.052;2023-07-24T12:01:47;26.60;99.90
23207;DHT22;11773;52.570;13.052;2023-07-24T12:04:17;26.00;99.90
23207;DHT22;11773;52.570;13.052;2023-07-24T12:06:48;25.90;99.90
23207;DHT22;11773;52.570;13.052;2023-07-24T12:09:18;25.40;99.90
23207;DHT22;11773;52.570;13.052;2023-07-24T12:11:47;25.50;99.90
23207;DHT22;11773;52.570;13.052;2023-07-24T12:14:17;25.50;99.90
23207;DHT22;11773;52.570;13.052;2023-07-24T12:16:46;25.90;99.90
23207;DHT22;11773;52.570;13.052;2023-07-24T12:19:16;26.40;99.90
23207;DHT22;11773;52.570;13.052;2023-07-24T12:21:46;26.60;99.90
23207;DHT22;11773;52.570;13.052;2023-07-24T12:24:16;26.80;99.90
23207;DHT22;11773;52.570;13.052;2023-07-24T12:26:46;27.00;99.90
23207;DHT22;11773;52.570;13.052;2023-07-24T12:29:15;27.00;99.90
23207;DHT22;11773;52.570;13.052;2023-07-24T12:31:45;27.10;99.90
23207;DHT22;11773;52.570;13.052;2023-07-24T12:34:14;27.10;99.90
23207;DHT22;11773;52.570;13.052;2023-07-24T12:36:44;27.10;99.90
23207;DHT22;11773;52.570;13.052;2023-07-24T12:39:15;27.10;99.90
23207;DHT22;11773;52.570;13.052;2023-07-24T12:41:44;27.20;99.90
23207;DHT22;11773;52.570;13.052;2023-07-24T12:44:14;27.30;99.90
23207;DHT22;11773;52.570;13.052;2023-07-24T12:46:44;27.60;99.90
23207;DHT22;11773;52.570;13.052;2023-07-24T12:49:13;27.50;99.90
23207;DHT22;11773;52.570;13.052;2023-07-24T12:51:43;27.70;99.90
23207;DHT22;11773;52.570;13.052;2023-07-24T12:54:12;27.50;99.90
23207;DHT22;11773;52.570;13.052;2023-07-24T12:56:44;27.20;99.90
23207;DHT22;11773;52.570;13.052;2023-07-24T12:59:13;27.10;99.90
23207;DHT22;11773;52.570;13.052;2023-07-24T13:01:43;27.00;99.90
23207;DHT22;11773;52.570;13.052;2023-07-24T13:04:13;27.20;99.90
23207;DHT22;11773;52.570;13.052;2023-07-24T13:06:42;27.20;99.90
23207;DHT22;11773;52.570;13.052;2023-07-24T13:09:12;27.40;99.90
23207;DHT22;11773;52.570;13.052;2023-07-24T13:11:42;27.50;99.90
23207;DHT22;11773;52.570;13.052;2023-07-24T13:14:14;27.70;99.90
23207;DHT22;11773;52.570;13.052;2023-07-24T13:16:43;27.40;99.90
23207;DHT22;11773;52.570;13.052;2023-07-24T13:19:13;27.90;99.90
23207;DHT22;11773;52.570;13.052;2023-07-24T13:21:47;28.00;99.90
23207;DHT22;11773;52.570;13.052;2023-07-24T13:24:16;27.90;99.90
23207;DHT22;11773;52.570;13.052;2023-07-24T13:26:46;28.10;99.90
23207;DHT22;11773;52.570;13.052;2023-07-24T13:29:16;28.10;99.90
23207;DHT22;11773;52.570;13.052;2023-07-24T13:31:45;27.90;99.90
23207;DHT22;11773;52.570;13.052;2023-07-24T13:34:15;28.00;99.90
23207;DHT22;11773;52.570;13.052;2023-07-24T13:36:46;28.10;99.90
23207;DHT22;11773;52.570;13.052;2023-07-24T13:39:16;28.30;99.90
23207;DHT22;11773;52.570;13.052;2023-07-24T13:41:45;28.50;99.90
23207;DHT22;11773;52.570;13.052;2023-07-24T13:44:15;28.50;99.90
23207;DHT22;11773;52.570;13.052;2023-07-24T13:46:44;28.60;99.90
23207;DHT22;11773;52.570;13.052;2023-07-24T13:49:14;28.70;99.90
23207;DHT22;11773;52.570;13.052;2023-07-24T13:51:43;28.70;99.90
23207;DHT22;11773;52.570;13.052;2023-07-24T13:54:13;28.60;99.90
23207;DHT22;11773;52.570;13.052;2023-07-24T13:56:43;28.60;99.90
23207;DHT22;11773;52.570;13.052;2023-07-24T13:59:12;28.50;99.90
23207;DHT22;11773;52.570;13.052;2023-07-24T14:01:42;28.60;99.90
23207;DHT22;11773;52.570;13.052;2023-07-24T14:04:12;28.50;99.90
23207;DHT22;11773;52.570;13.052;2023-07-24T14:06:42;28.70;99.90
23207;DHT22;11773;52.570;13.052;2023-07-24T14:09:12;28.70;99.90
23207;DHT22;11773;52.570;13.052;2023-07-24T14:11:42;28.80;99.90
23207;DHT22;11773;52.570;13.052;2023-07-24T14:14:11;28.90;99.90
23207;DHT22;11773;52.570;13.052;2023-07-24T14:16:41;28.70;99.90
23207;DHT22;11773;52.570;13.052;2023-07-24T14:19:10;28.60;99.90
23207;DHT22;11773;52.570;13.052;2023-07-24T14:21:40;28.50;99.90
23207;DHT22;11773;52.570;13.052;2023-07-24T14:24:09;28.40;99.90
23207;DHT22;11773;52.570;13.052;2023-07-24T14:26:39;28.40;99.90
23207;DHT22;11773;52.570;13.052;2023-07-24T14:29:09;28.30;99.90
23207;DHT22;11773;52.570;13.052;2023-07-24T14:31:39;28.20;99.90
23207;DHT22;11773;52.570;13.052;2023-07-24T14:34:08;28.20;99.90
23207;DHT22;11773;52.570;13.052;2023-07-24T14:36:40;28.10;99.90
23207;DHT22;11773;52.570;13.052;2023-07-24T14:39:10;27.90;99.90
23207;DHT22;11773;52.570;13.052;2023-07-24T14:41:39;27.40;99.90
23207;DHT22;11773;52.570;13.052;2023-07-24T14:44:09;27.60;99.90
23207;DHT22;11773;52.570;13.052;2023-07-24T14:46:39;27.30;99.90
23207;DHT22;11773;52.570;13.052;2023-07-24T14:49:08;27.50;99.90
23207;DHT22;11773;52.570;13.052;2023-07-24T14:51:38;27.40;99.90
23207;DHT22;11773;52.570;13.052;2023-07-24T14:54:07;27.30;99.90
23207;DHT22;11773;52.570;13.052;2023-07-24T14:56:37;27.40;99.90
23207;DHT22;11773;52.570;13.052;2023-07-24T14:59:08;27.20;99.90
23207;DHT22;11773;52.570;13.052;2023-07-24T15:01:38;27.30;99.90
23207;DHT22;11773;52.570;13.052;2023-07-24T15:04:07;27.40;99.90
23207;DHT22;11773;52.570;13.052;2023-07-24T15:06:37;27.30;99.90
23207;DHT22;11773;52.570;13.052;2023-07-24T15:09:06;27.40;99.90
23207;DHT22;11773;52.570;13.052;2023-07-24T15:11:36;27.30;99.90
23207;DHT22;11773;52.570;13.052;2023-07-24T15:14:06;27.10;99.90
23207;DHT22;11773;52.570;13.052;2023-07-24T15:16:35;27.20;99.90
23207;DHT22;11773;52.570;13.052;2023-07-24T15:19:05;27.30;99.90
23207;DHT22;11773;52.570;13.052;2023-07-24T15:21:34;27.30;99.90
23207;DHT22;11773;52.570;13.052;2023-07-24T15:24:04;27.40;99.90
23207;DHT22;11773;52.570;13.052;2023-07-24T15:26:33;27.40;99.90
23207;DHT22;11773;52.570;13.052;2023-07-24T15:29:03;27.50;99.90
23207;DHT22;11773;52.570;13.052;2023-07-24T15:31:33;27.60;99.90
23207;DHT22;11773;52.570;13.052;2023-07-24T15:34:04;27.50;99.90
23207;DHT22;11773;52.570;13.052;2023-07-24T15:36:37;27.50;99.90
23207;DHT22;11773;52.570;13.052;2023-07-24T15:39:07;27.70;99.90
23207;DHT22;11773;52.570;13.052;2023-07-24T15:41:36;27.70;99.90
23207;DHT22;11773;52.570;13.052;2023-07-24T15:44:06;27.70;99.90